Time;durP1;ratioP1;P1;durP2;ratioP2;P2;SDS_P1;SDS_P2;PMS_P1;PMS_P2;Temp;Humidity;BMP_temperature;BMP_pressure;BME280_temperature;BME280_humidity;BME280_pressure;Samples;Min_cycle;Max_cycle;Signal;HPM_P1;HPM_P2
2023/09/11 00:00:01;;;;;;;19.98;12.15;;;;;;;20.10;70.53;98834.78;4992316;28;20460;-84
2023/09/11 00:02:26;;;;;;;20.50;11.50;;;;;;;20.01;70.28;98824.97;5008140;28;20058;-83
2023/09/11 00:04:52;;;;;;;19.20;12.27;;;;;;;19.87;70.71;98824.28;5007943;28;20025;-83
2023/09/11 00:07:17;;;;;;;21.20;11.75;;;;;;;20.06;70.33;98844.63;5006969;28;21462;-83
2023/09/11 00:09:43;;;;;;;22.90;12.55;;;;;;;19.97;70.35;98819.41;5007447;28;20116;-83
2023/09/11 00:12:08;;;;;;;20.75;11.93;;;;;;;19.97;70.26;98824.00;5007797;28;20026;-83
2023/09/11 00:14:34;;;;;;;17.48;12.43;;;;;;;20.13;69.67;98831.47;5007182;28;20032;-84
2023/09/11 00:16:59;;;;;;;15.10;11.75;;;;;;;20.13;70.01;98831.47;4989837;28;20093;-84
2023/09/11 00:19:24;;;;;;;15.43;11.60;;;;;;;20.09;69.91;98821.53;4987909;28;21003;-84
2023/09/11 00:21:50;;;;;;;18.58;12.48;;;;;;;20.10;69.93;98829.34;4989357;28;20052;-84
2023/09/11 00:24:15;;;;;;;16.00;11.77;;;;;;;19.92;70.37;98819.53;5011958;28;20042;-84
2023/09/11 00:26:40;;;;;;;15.82;11.25;;;;;;;20.01;70.05;98828.50;4995081;28;20117;-84
2023/09/11 00:29:06;;;;;;;20.35;13.27;;;;;;;20.02;69.98;98818.47;5010917;28;20172;-83
2023/09/11 00:31:31;;;;;;;25.05;11.80;;;;;;;19.96;70.05;98830.56;4994056;28;20030;-84
2023/09/11 00:33:56;;;;;;;23.15;12.77;;;;;;;19.91;70.24;98822.53;4972339;28;20023;-84
2023/09/11 00:36:22;;;;;;;19.58;11.98;;;;;;;19.91;70.41;98815.22;4978567;28;20097;-84
2023/09/11 00:38:50;;;;;;;20.70;12.93;;;;;;;19.71;69.69;98766.97;4993548;28;20030;-84
2023/09/11 00:41:15;;;;;;;22.10;12.40;;;;;;;19.84;70.02;98809.44;5010605;28;20393;-83
2023/09/11 00:43:40;;;;;;;15.20;10.95;;;;;;;19.85;69.87;98789.38;5011809;28;20032;-84
2023/09/11 00:46:06;;;;;;;18.85;11.80;;;;;;;19.92;70.03;98800.56;4994274;28;20895;-84
2023/09/11 00:48:32;;;;;;;22.40;11.55;;;;;;;19.88;70.21;98798.78;4993193;28;20030;-83
2023/09/11 00:50:57;;;;;;;22.83;11.90;;;;;;;19.72;70.29;98789.44;5007249;28;20088;-84
2023/09/11 00:53:25;;;;;;;18.40;12.93;;;;;;;19.75;70.31;98786.09;4994976;28;20038;-83
2023/09/11 00:55:51;;;;;;;32.58;13.35;;;;;;;19.76;70.31;98793.13;4981166;28;21702;-84
2023/09/11 00:58:17;;;;;;;18.40;12.50;;;;;;;19.72;70.36;98794.88;4992098;28;20041;-85
2023/09/11 01:00:46;;;;;;;21.88;12.48;;;;;;;19.61;70.27;98767.25;5007737;28;20026;-85
2023/09/11 01:03:12;;;;;;;18.42;12.85;;;;;;;19.66;70.29;98774.44;4990232;28;20045;-84
2023/09/11 01:05:38;;;;;;;21.23;12.93;;;;;;;19.65;70.73;98791.78;5026674;28;20041;-84
2023/09/11 01:08:04;;;;;;;20.45;12.60;;;;;;;19.43;70.73;98776.34;5007881;28;20986;-84
2023/09/11 01:10:29;;;;;;;24.60;12.68;;;;;;;19.59;70.87;98787.63;4993365;28;20092;-84
2023/09/11 01:12:55;;;;;;;21.95;12.90;;;;;;;19.37;70.84;98769.47;5007494;28;20107;-84
2023/09/11 01:15:22;;;;;;;27.20;11.80;;;;;;;19.41;71.49;98789.38;5003432;28;20428;-83
2023/09/11 01:18:21;;;;;;;31.50;13.15;;;;;;;19.27;71.74;98797.53;5007834;28;20060;-84
2023/09/11 01:21:12;;;;;;;25.92;13.23;;;;;;;19.53;71.15;98786.13;5003546;28;20071;-84
2023/09/11 01:24:15;;;;;;;22.20;12.15;;;;;;;19.56;70.44;98782.81;5007977;28;20041;-84
2023/09/11 01:27:06;;;;;;;24.45;11.77;;;;;;;19.57;70.54;98792.53;5001023;28;20032;-84
2023/09/11 01:29:34;;;;;;;20.35;12.27;;;;;;;19.43;71.13;98792.59;4981325;28;20040;-84
2023/09/11 01:32:02;;;;;;;26.73;13.52;;;;;;;19.57;70.79;98792.53;4997663;28;20038;-83
2023/09/11 01:34:27;;;;;;;16.73;11.63;;;;;;;19.52;70.76;98789.94;5009833;28;20030;-84
2023/09/11 01:36:53;;;;;;;26.95;13.48;;;;;;;19.51;70.81;98789.13;5008115;28;20037;-84
2023/09/11 01:39:19;;;;;;;22.95;12.25;;;;;;;19.25;70.97;98761.03;5005858;28;20034;-83
2023/09/11 01:41:46;;;;;;;21.33;11.80;;;;;;;19.37;71.16;98786.47;5008611;28;20042;-83
2023/09/11 01:44:21;;;;;;;19.42;11.68;;;;;;;19.35;71.29;98763.56;5008772;28;20021;-84
2023/09/11 01:46:49;;;;;;;23.70;11.95;;;;;;;19.37;70.41;98764.03;4991886;28;20750;-84
2023/09/11 01:49:19;;;;;;;22.13;12.88;;;;;;;19.42;70.84;98780.16;5011399;28;20103;-83
2023/09/11 01:51:45;;;;;;;18.40;11.43;;;;;;;19.47;70.22;98773.81;5006900;28;20485;-83
2023/09/11 01:54:11;;;;;;;19.52;11.80;;;;;;;19.36;70.40;98760.53;5005958;28;20030;-83
2023/09/11 01:56:37;;;;;;;22.10;12.90;;;;;;;19.27;70.71;98766.94;5009572;28;20030;-83
2023/09/11 01:59:02;;;;;;;19.58;12.70;;;;;;;19.31;71.13;98778.75;4994465;28;20130;-84
2023/09/11 02:01:28;;;;;;;24.90;12.30;;;;;;;19.23;71.05;98755.94;5011479;28;20025;-83
2023/09/11 02:03:53;;;;;;;20.05;12.80;;;;;;;19.27;71.09;98785.88;4977576;28;20126;-83
2023/09/11 02:06:19;;;;;;;23.23;11.88;;;;;;;19.24;71.24;98781.88;4995914;28;20065;-84
2023/09/11 02:08:44;;;;;;;16.55;11.77;;;;;;;19.22;71.06;98778.69;4989403;28;20552;-83
2023/09/11 02:11:10;;;;;;;17.35;12.43;;;;;;;19.19;71.20;98775.81;5002895;28;20121;-84
2023/09/11 02:13:36;;;;;;;18.50;11.20;;;;;;;19.05;70.62;98751.50;5005061;28;20050;-84
2023/09/11 02:16:01;;;;;;;23.23;12.18;;;;;;;19.10;71.00;98762.22;5008617;28;20069;-84
2023/09/11 02:18:27;;;;;;;17.73;10.90;;;;;;;19.24;70.48;98773.78;4991445;28;20029;-84
2023/09/11 02:20:52;;;;;;;15.63;11.38;;;;;;;19.13;70.92;98764.28;5006838;28;20033;-83
2023/09/11 02:23:17;;;;;;;17.70;12.23;;;;;;;19.10;70.78;98770.31;4991068;28;20109;-83
2023/09/11 02:25:43;;;;;;;20.65;11.95;;;;;;;19.12;70.79;98760.00;5006235;28;20545;-84
2023/09/11 02:28:08;;;;;;;24.83;12.00;;;;;;;18.95;71.12;98749.03;4994176;28;20037;-83
2023/09/11 02:30:34;;;;;;;19.92;12.23;;;;;;;19.00;71.41;98775.94;5006819;28;20053;-83
2023/09/11 02:32:59;;;;;;;18.92;11.20;;;;;;;19.07;71.43;98778.22;5011452;28;20037;-84
2023/09/11 02:35:24;;;;;;;23.35;11.38;;;;;;;18.81;71.47;98761.78;5008643;28;20024;-83
2023/09/11 02:37:50;;;;;;;20.08;12.45;;;;;;;18.83;71.81;98764.19;4988670;28;20034;-84
2023/09/11 02:40:15;;;;;;;18.48;11.20;;;;;;;18.90;71.94;98772.66;4990704;28;20033;-84
2023/09/11 02:42:41;;;;;;;20.83;11.95;;;;;;;18.90;71.17;98746.44;4989016;28;20646;-84
2023/09/11 02:45:06;;;;;;;16.45;11.45;;;;;;;18.93;71.47;98759.34;4989715;28;20712;-84
2023/09/11 02:47:32;;;;;;;19.02;11.18;;;;;;;19.00;71.42;98761.66;5008347;28;20029;-84
2023/09/11 02:49:57;;;;;;;18.77;11.25;;;;;;;18.88;70.97;98756.75;5008115;28;20130;-84
2023/09/11 02:52:22;;;;;;;18.75;11.43;;;;;;;18.74;71.80;98753.28;4972993;28;20032;-84
2023/09/11 02:54:48;;;;;;;22.50;11.95;;;;;;;18.88;71.20;98755.94;4974163;28;20026;-83
2023/09/11 02:57:13;;;;;;;21.42;12.10;;;;;;;18.78;71.55;98759.69;4986745;28;20045;-84
2023/09/11 02:59:38;;;;;;;22.70;11.05;;;;;;;18.85;71.46;98757.34;5004926;28;20018;-84
2023/09/11 03:02:05;;;;;;;24.40;10.75;;;;;;;18.81;71.55;98758.25;5007686;28;20102;-83
2023/09/11 03:04:30;;;;;;;20.92;10.82;;;;;;;18.71;71.39;98751.19;5007123;28;20113;-84
2023/09/11 03:06:55;;;;;;;19.90;11.70;;;;;;;18.73;71.86;98757.09;4990785;28;20126;-82
2023/09/11 03:09:21;;;;;;;17.80;10.98;;;;;;;18.71;71.32;98740.38;4992967;28;20054;-84
2023/09/11 03:11:46;;;;;;;16.45;11.10;;;;;;;18.70;71.11;98736.88;5005357;28;20044;-84
2023/09/11 03:14:13;;;;;;;19.50;10.30;;;;;;;18.62;71.26;98744.91;4991485;28;20034;-83
2023/09/11 03:16:43;;;;;;;18.92;11.88;;;;;;;18.58;71.54;98743.91;5006438;28;20465;-84
2023/09/11 03:19:09;;;;;;;19.17;10.70;;;;;;;18.56;71.95;98740.69;5005698;28;20698;-83
2023/09/11 03:21:34;;;;;;;31.83;12.38;;;;;;;18.72;71.75;98757.41;5008707;28;20044;-84
2023/09/11 03:23:59;;;;;;;14.98;10.38;;;;;;;18.65;71.22;98757.81;4976678;28;20541;-82
2023/09/11 03:26:25;;;;;;;19.02;11.50;;;;;;;18.68;71.33;98759.91;5010695;28;20726;-83
2023/09/11 03:28:50;;;;;;;23.23;11.30;;;;;;;18.47;71.34;98747.91;5009864;28;20501;-83
2023/09/11 03:31:16;;;;;;;19.20;11.98;;;;;;;18.53;71.35;98746.69;5008834;28;20620;-83
2023/09/11 03:33:42;;;;;;;16.90;10.70;;;;;;;18.50;71.43;98741.91;5010261;28;20393;-84
2023/09/11 03:36:07;;;;;;;21.00;12.05;;;;;;;18.56;71.34;98746.13;5007296;28;20044;-83
2023/09/11 03:38:33;;;;;;;22.85;11.48;;;;;;;18.61;71.06;98738.69;5008866;28;20061;-83
2023/09/11 03:40:59;;;;;;;20.05;11.40;;;;;;;18.55;71.20;98750.72;4988704;28;20561;-83
2023/09/11 03:43:24;;;;;;;17.98;11.23;;;;;;;18.33;71.31;98731.69;5007693;28;20036;-83
2023/09/11 03:45:50;;;;;;;24.52;12.60;;;;;;;18.55;71.54;98758.81;4988481;28;20473;-83
2023/09/11 03:48:15;;;;;;;13.48;10.32;;;;;;;18.47;71.57;98743.31;5026497;28;20040;-84
2023/09/11 03:50:41;;;;;;;19.60;10.68;;;;;;;18.22;71.36;98697.03;5008514;28;20034;-83
2023/09/11 03:53:06;;;;;;;24.40;11.30;;;;;;;18.48;71.50;98744.91;5006066;28;20069;-84
2023/09/11 03:55:31;;;;;;;18.75;11.93;;;;;;;18.38;71.49;98734.28;4979308;28;20026;-84
2023/09/11 03:57:57;;;;;;;17.42;11.13;;;;;;;18.39;71.36;98737.78;5010509;28;20038;-84
2023/09/11 04:00:22;;;;;;;14.52;10.65;;;;;;;18.40;71.23;98720.47;5010048;28;20053;-84
2023/09/11 04:02:48;;;;;;;24.25;11.63;;;;;;;18.40;71.61;98728.56;5011923;28;20030;-84
2023/09/11 04:05:14;;;;;;;18.80;11.00;;;;;;;18.25;71.74;98723.47;4979277;28;20251;-84
2023/09/11 04:07:40;;;;;;;15.63;10.93;;;;;;;18.47;71.35;98720.88;4994199;28;20398;-84
2023/09/11 04:10:06;;;;;;;23.42;11.35;;;;;;;18.35;71.73;98721.38;5010931;28;20026;-84
2023/09/11 04:12:32;;;;;;;21.58;12.18;;;;;;;18.27;71.57;98727.47;5005127;28;20026;-84
2023/09/11 04:14:57;;;;;;;18.55;10.32;;;;;;;18.46;71.65;98730.09;4975345;28;20437;-84
2023/09/11 04:17:22;;;;;;;17.35;11.43;;;;;;;18.33;71.30;98715.47;4992299;28;20041;-84
2023/09/11 04:19:48;;;;;;;18.33;11.93;;;;;;;18.46;71.57;98733.59;4976581;28;20037;-84
2023/09/11 04:22:13;;;;;;;15.23;10.52;;;;;;;18.39;71.51;98726.97;5006399;28;20068;-84
2023/09/11 04:24:38;;;;;;;18.92;10.88;;;;;;;18.40;71.70;98728.56;5006617;28;20062;-84
2023/09/11 04:27:05;;;;;;;19.73;11.15;;;;;;;18.36;71.28;98731.09;4994860;28;20068;-83
2023/09/11 04:29:31;;;;;;;17.27;10.90;;;;;;;18.21;71.67;98712.47;5009894;28;20030;-83
2023/09/11 04:31:56;;;;;;;16.67;11.35;;;;;;;18.35;71.32;98732.16;5009381;28;20037;-84
2023/09/11 04:34:22;;;;;;;16.48;10.80;;;;;;;18.25;71.62;98723.47;5009704;28;20029;-84
2023/09/11 04:36:47;;;;;;;16.33;11.10;;;;;;;18.15;72.26;98718.28;5013131;28;20394;-83
2023/09/11 04:39:13;;;;;;;19.42;11.07;;;;;;;18.16;71.93;98706.38;5011640;28;20369;-84
2023/09/11 04:41:38;;;;;;;18.83;11.73;;;;;;;17.70;73.61;98719.94;5005316;28;20026;-86
2023/09/11 04:44:04;;;;;;;17.38;10.63;;;;;;;17.38;75.08;98715.34;4987153;28;20045;-85
2023/09/11 04:46:29;;;;;;;20.55;12.10;;;;;;;17.28;75.76;98731.69;4992452;28;20140;-85
2023/09/11 04:48:55;;;;;;;24.70;12.23;;;;;;;17.15;76.52;98722.44;4996274;28;20034;-86
2023/09/11 04:51:21;;;;;;;26.20;12.80;;;;;;;17.02;76.71;98722.38;4994580;28;20849;-86
2023/09/11 04:53:46;;;;;;;20.83;12.07;;;;;;;16.97;77.06;98717.88;5009922;28;21274;-85
2023/09/11 04:56:12;;;;;;;21.73;12.40;;;;;;;16.91;77.29;98716.34;4989824;28;20038;-86
2023/09/11 04:58:37;;;;;;;20.23;11.25;;;;;;;17.03;77.22;98729.41;4992815;28;20397;-88
2023/09/11 05:01:05;;;;;;;23.67;12.07;;;;;;;16.89;77.28;98721.25;4975989;28;20119;-86
2023/09/11 05:03:30;;;;;;;18.60;12.45;;;;;;;16.79;77.33;98709.81;4975876;28;20057;-85
2023/09/11 05:05:56;;;;;;;24.25;12.40;;;;;;;16.79;77.61;98721.41;4989531;28;20099;-85
2023/09/11 05:08:21;;;;;;;26.27;13.15;;;;;;;16.78;77.39;98721.66;4992956;28;20033;-84
2023/09/11 05:10:46;;;;;;;22.50;12.48;;;;;;;16.86;77.93;98727.19;5010169;28;20077;-86
2023/09/11 05:13:12;;;;;;;23.58;11.57;;;;;;;16.76;78.33;98730.06;4992188;28;20434;-85
2023/09/11 05:15:37;;;;;;;23.05;13.70;;;;;;;16.75;78.51;98733.06;5016130;28;20335;-86
2023/09/11 05:18:03;;;;;;;23.05;12.23;;;;;;;16.83;78.59;98737.78;5013030;28;20072;-86
2023/09/11 05:20:30;;;;;;;24.70;12.95;;;;;;;16.73;79.11;98727.94;5014567;28;20038;-86
2023/09/11 05:22:56;;;;;;;24.88;12.77;;;;;;;16.99;78.17;98723.00;5000532;28;20489;-86
2023/09/11 05:25:21;;;;;;;15.90;11.25;;;;;;;16.97;77.53;98712.47;5007014;28;20040;-86
2023/09/11 05:27:46;;;;;;;21.60;11.93;;;;;;;17.06;77.56;98710.72;4987499;28;20021;-86
2023/09/11 05:30:13;;;;;;;17.27;12.27;;;;;;;17.05;77.33;98705.63;4996911;28;20112;-87
2023/09/11 05:32:39;;;;;;;26.70;12.23;;;;;;;17.19;77.26;98730.75;5013698;28;20037;-86
2023/09/11 05:35:06;;;;;;;22.10;11.80;;;;;;;17.29;76.96;98733.31;5012363;28;20121;-86
2023/09/11 05:37:31;;;;;;;18.17;11.15;;;;;;;17.25;76.54;98726.91;4999861;28;20072;-86
2023/09/11 05:39:56;;;;;;;23.00;11.43;;;;;;;17.36;76.90;98735.63;4981464;28;20050;-88
2023/09/11 05:42:22;;;;;;;16.75;11.27;;;;;;;17.30;76.64;98724.09;5012065;28;20021;-86
2023/09/11 05:44:48;;;;;;;15.15;10.57;;;;;;;17.21;77.39;98720.50;5016121;28;20030;-87
2023/09/11 05:47:14;;;;;;;26.05;11.77;;;;;;;17.42;77.08;98743.34;5016916;28;20044;-85
2023/09/11 05:49:39;;;;;;;16.52;11.63;;;;;;;17.46;77.21;98748.94;5028088;28;20476;-86
2023/09/11 05:52:05;;;;;;;19.83;11.18;;;;;;;17.35;77.43;98732.13;4996668;28;20037;-86
2023/09/11 05:54:31;;;;;;;21.73;11.65;;;;;;;17.34;77.36;98738.63;4994734;28;20038;-87
2023/09/11 05:56:56;;;;;;;15.60;11.50;;;;;;;17.24;77.02;98704.50;4998635;28;20033;-87
2023/09/11 05:59:24;;;;;;;18.88;11.98;;;;;;;17.65;77.41;98758.63;5017099;28;20030;-87
2023/09/11 06:01:50;;;;;;;22.85;12.48;;;;;;;17.43;77.31;98727.97;5016876;28;20173;-87
2023/09/11 06:04:15;;;;;;;22.30;10.73;;;;;;;17.65;77.72;98755.09;4973909;28;20114;-87
2023/09/11 06:06:41;;;;;;;18.05;11.13;;;;;;;17.56;77.77;98738.00;4982477;28;20037;-87
2023/09/11 06:09:08;;;;;;;22.48;11.82;;;;;;;17.69;77.95;98759.63;5001337;28;20086;-88
2023/09/11 06:11:34;;;;;;;25.80;12.27;;;;;;;17.26;78.60;98701.50;4998202;28;20121;-88
2023/09/11 06:13:59;;;;;;;18.52;11.38;;;;;;;17.75;79.05;98752.25;5004233;28;20026;-87
2023/09/11 06:16:25;;;;;;;25.98;11.20;;;;;;;17.81;78.00;98751.06;5013430;28;20026;-87
2023/09/11 06:18:50;;;;;;;27.30;11.73;;;;;;;17.72;78.66;98739.34;5002547;28;20061;-87
2023/09/11 06:21:16;;;;;;;20.83;11.38;;;;;;;17.83;78.06;98765.06;4975347;28;20056;-87
2023/09/11 06:23:41;;;;;;;15.60;10.43;;;;;;;17.85;78.81;98752.88;4993440;28;20117;-87
2023/09/11 06:26:07;;;;;;;20.77;12.82;;;;;;;17.28;80.05;98715.50;4999446;28;20043;-88
2023/09/11 06:28:32;;;;;;;20.63;12.05;;;;;;;17.57;79.89;98745.81;5019100;28;20436;-87
2023/09/11 06:30:59;;;;;;;15.98;11.05;;;;;;;17.75;79.05;98747.66;4986114;28;20650;-88
2023/09/11 06:33:27;;;;;;;18.55;10.70;;;;;;;17.58;80.13;98738.53;4990129;28;20026;-87
2023/09/11 06:35:52;;;;;;;20.73;11.05;;;;;;;17.83;79.39;98749.66;5014097;28;20049;-87
2023/09/11 06:38:18;;;;;;;19.05;12.07;;;;;;;17.81;80.81;98757.25;4972969;28;20509;-87
2023/09/11 06:40:44;;;;;;;26.52;13.75;;;;;;;17.66;82.39;98754.03;4989688;28;20077;-87
2023/09/11 06:43:09;;;;;;;17.95;11.00;;;;;;;17.81;80.13;98738.38;4997270;28;20354;-87
2023/09/11 06:45:35;;;;;;;18.55;11.52;;;;;;;18.00;78.99;98749.06;4995136;28;20084;-87
2023/09/11 06:48:01;;;;;;;20.67;10.63;;;;;;;18.08;79.30;98755.69;4988847;28;20037;-88
2023/09/11 06:50:27;;;;;;;15.50;9.95;;;;;;;18.04;79.25;98754.69;5012708;28;20173;-87
2023/09/11 06:52:53;;;;;;;22.60;13.68;;;;;;;17.72;83.27;98736.63;4996258;28;20022;-87
2023/09/11 06:55:18;;;;;;;24.67;12.07;;;;;;;18.06;79.38;98756.00;5009566;28;20072;-88
2023/09/11 06:57:56;;;;;;;27.58;13.13;;;;;;;17.86;83.07;98726.66;4995353;28;20125;-87
2023/09/11 07:00:22;;;;;;;30.98;13.75;;;;;;;17.97;81.82;98753.16;5018346;28;20049;-87
2023/09/11 07:02:48;;;;;;;23.52;11.68;;;;;;;18.10;79.55;98748.09;5008613;28;20034;-88
2023/09/11 07:05:16;;;;;;;18.85;10.73;;;;;;;18.14;80.07;98739.09;5014627;28;20036;-88
2023/09/11 07:07:41;;;;;;;19.02;13.77;;;;;;;17.97;85.12;98736.97;5010596;28;20037;-88
2023/09/11 07:10:11;;;;;;;16.60;11.20;;;;;;;18.11;80.69;98739.69;5011917;28;20025;-87
2023/09/11 07:12:36;;;;;;;16.40;10.50;;;;;;;18.12;82.08;98745.88;5013133;28;20456;-88
2023/09/11 07:15:02;;;;;;;24.83;12.85;;;;;;;18.02;83.99;98714.47;5009785;28;20034;-88
2023/09/11 07:17:27;;;;;;;19.75;10.50;;;;;;;18.39;79.85;98732.38;5013885;28;20036;-87
2023/09/11 07:19:53;;;;;;;21.35;11.13;;;;;;;18.35;81.01;98717.84;4979922;28;20034;-87
2023/09/11 07:22:18;;;;;;;23.15;11.02;;;;;;;18.20;80.67;98721.66;5014004;28;20508;-87
2023/09/11 07:24:43;;;;;;;19.45;10.95;;;;;;;18.43;79.80;98733.38;4977304;28;20038;-87
2023/09/11 07:27:09;;;;;;;15.07;9.82;;;;;;;18.62;79.14;98734.88;4985040;28;20069;-87
2023/09/11 07:29:34;;;;;;;16.60;11.15;;;;;;;18.43;79.78;98703.66;5011665;28;20034;-88
2023/09/11 07:31:59;;;;;;;21.15;10.38;;;;;;;18.43;80.98;98725.28;5013064;28;20037;-87
2023/09/11 07:34:25;;;;;;;18.95;11.20;;;;;;;18.48;82.10;98734.09;4977514;28;20029;-87
2023/09/11 07:36:50;;;;;;;31.80;12.18;;;;;;;18.34;83.77;98714.38;4980421;28;20277;-87
2023/09/11 07:39:15;;;;;;;24.27;11.85;;;;;;;18.46;82.48;98732.78;5013300;28;20406;-87
2023/09/11 07:41:41;;;;;;;17.20;9.65;;;;;;;18.69;81.33;98729.06;4992253;28;20426;-87
2023/09/11 07:44:06;;;;;;;17.88;9.80;;;;;;;18.83;79.33;98739.84;5014225;28;20096;-87
2023/09/11 07:46:31;;;;;;;11.63;8.63;;;;;;;18.73;79.15;98716.53;5012631;28;20029;-87
2023/09/11 07:48:57;;;;;;;15.05;9.90;;;;;;;18.94;78.63;98736.59;4980261;28;20432;-88
2023/09/11 07:51:22;;;;;;;21.48;9.82;;;;;;;18.84;81.74;98733.31;5028992;28;20093;-87
2023/09/11 07:53:48;;;;;;;20.52;10.63;;;;;;;18.70;82.88;98728.75;5014290;28;20080;-87
2023/09/11 07:56:13;;;;;;;16.50;10.13;;;;;;;18.74;80.78;98711.94;5013520;28;20037;-87
2023/09/11 07:58:39;;;;;;;19.33;11.60;;;;;;;18.92;80.49;98721.78;4996248;28;20033;-88
2023/09/11 08:01:05;;;;;;;16.13;10.05;;;;;;;19.15;79.22;98724.22;4996644;28;20374;-87
2023/09/11 08:03:34;;;;;;;17.13;10.05;;;;;;;19.35;79.27;98726.44;5013102;28;20018;-87
2023/09/11 08:06:00;;;;;;;21.88;10.15;;;;;;;19.03;85.04;98728.56;5013670;28;20037;-87
2023/09/11 08:08:26;;;;;;;18.52;9.73;;;;;;;19.01;82.23;98718.03;5008211;28;20027;-87
2023/09/11 08:10:52;;;;;;;18.98;9.65;;;;;;;19.27;79.93;98716.34;5007445;28;20101;-87
2023/09/11 08:13:17;;;;;;;18.17;9.10;;;;;;;19.30;80.13;98713.03;4997542;28;20505;-87
2023/09/11 08:15:42;;;;;;;24.85;11.25;;;;;;;19.14;82.96;98711.78;5006531;28;20077;-87
2023/09/11 08:18:08;;;;;;;21.60;9.73;;;;;;;19.22;82.08;98707.56;5013565;28;20030;-87
2023/09/11 08:20:33;;;;;;;21.17;9.95;;;;;;;19.43;80.77;98711.38;5000159;28;20097;-87
2023/09/11 08:22:59;;;;;;;16.05;9.98;;;;;;;19.42;80.09;98704.34;5000111;28;20041;-87
2023/09/11 08:25:24;;;;;;;28.00;10.43;;;;;;;19.54;82.00;98696.47;4999639;28;20413;-87
2023/09/11 08:27:49;;;;;;;20.88;9.88;;;;;;;19.66;78.75;98693.19;5000312;28;20117;-87
2023/09/11 08:30:16;;;;;;;25.75;9.57;;;;;;;19.79;80.49;98720.16;4984422;28;20052;-87
2023/09/11 08:32:41;;;;;;;23.00;10.48;;;;;;;19.74;80.87;98698.66;5016674;28;20029;-87
2023/09/11 08:35:07;;;;;;;18.80;10.73;;;;;;;19.88;80.27;98710.19;4984211;28;20401;-88
2023/09/11 08:37:33;;;;;;;27.52;10.18;;;;;;;19.70;81.67;98673.28;5015662;28;20049;-88
2023/09/11 08:39:58;;;;;;;19.90;10.18;;;;;;;19.80;81.76;98694.69;5017196;28;20031;-86
2023/09/11 08:42:24;;;;;;;23.67;9.60;;;;;;;20.08;79.16;98673.59;5016366;28;20155;-87
2023/09/11 08:44:49;;;;;;;24.17;10.52;;;;;;;20.19;80.32;98710.94;5015953;28;20057;-87
2023/09/11 08:47:16;;;;;;;22.40;9.63;;;;;;;20.11;81.28;98703.59;5013499;28;20038;-88
2023/09/11 08:49:44;;;;;;;27.75;10.55;;;;;;;20.16;81.35;98700.72;4999648;28;20032;-87
2023/09/11 08:52:13;;;;;;;28.15;10.88;;;;;;;20.28;81.13;98702.88;4998914;28;20129;-87
2023/09/11 08:54:42;;;;;;;34.30;10.55;;;;;;;20.05;81.30;98660.69;4998596;28;20508;-87
2023/09/11 08:57:10;;;;;;;22.67;9.90;;;;;;;20.29;82.14;98690.13;5014542;28;20033;-87
2023/09/11 08:59:37;;;;;;;24.70;9.80;;;;;;;20.52;80.63;98705.94;4998930;28;20395;-87
2023/09/11 09:02:03;;;;;;;19.00;10.88;;;;;;;20.46;80.31;98682.81;5007574;28;20042;-88
2023/09/11 09:04:30;;;;;;;24.88;10.20;;;;;;;20.66;80.38;98694.97;5015057;28;20022;-87
2023/09/11 09:06:56;;;;;;;29.48;10.32;;;;;;;20.72;81.61;98686.38;5014939;28;20029;-88
2023/09/11 09:09:22;;;;;;;20.20;9.88;;;;;;;20.84;79.68;98686.50;4997968;28;20043;-87
2023/09/11 09:11:48;;;;;;;23.40;10.68;;;;;;;21.17;78.82;98695.00;4998645;28;20038;-87
2023/09/11 09:14:18;;;;;;;20.17;10.82;;;;;;;21.08;79.53;98696.13;4998537;28;20153;-88
2023/09/11 09:16:47;;;;;;;25.42;10.90;;;;;;;21.07;79.07;98691.81;5015609;28;20026;-87
2023/09/11 09:19:12;;;;;;;23.27;10.43;;;;;;;21.25;79.41;98685.25;5014828;28;20042;-87
2023/09/11 09:22:07;;;;;;;24.58;9.57;;;;;;;21.31;80.10;98683.97;5015745;28;20041;-86
2023/09/11 09:24:34;;;;;;;24.52;9.70;;;;;;;21.46;79.32;98676.09;5015012;28;20033;-87
2023/09/11 09:27:01;;;;;;;22.83;9.55;;;;;;;21.56;79.07;98678.47;5015364;28;20069;-87
2023/09/11 09:29:31;;;;;;;26.13;10.57;;;;;;;21.54;79.52;98660.88;5013427;28;20034;-88
2023/09/11 09:31:59;;;;;;;25.95;10.00;;;;;;;21.83;78.15;98666.41;4999156;28;20100;-87
2023/09/11 09:34:25;;;;;;;21.70;9.48;;;;;;;21.93;77.45;98674.19;5015118;28;20030;-88
2023/09/11 09:36:52;;;;;;;23.90;8.48;;;;;;;22.09;77.40;98672.53;4981619;28;20033;-88
2023/09/11 09:39:18;;;;;;;29.08;10.63;;;;;;;22.02;77.64;98661.38;4997309;28;20061;-87
2023/09/11 09:41:58;;;;;;;26.35;10.18;;;;;;;21.82;77.79;98605.00;5010159;28;20026;-87
2023/09/11 09:44:41;;;;;;;28.52;12.02;;;;;;;22.38;77.47;98669.81;5013610;28;20026;-88
2023/09/11 09:47:15;;;;;;;37.45;11.23;;;;;;;22.57;76.42;98666.63;5006273;28;20029;-88
2023/09/11 09:49:54;;;;;;;21.85;9.48;;;;;;;22.53;75.91;98665.72;4997649;28;20030;-87
2023/09/11 09:52:24;;;;;;;19.05;9.07;;;;;;;22.50;75.74;98649.25;5006988;28;20069;-88
2023/09/11 09:54:55;;;;;;;18.30;9.48;;;;;;;22.55;76.66;98643.59;5015002;28;20022;-87
2023/09/11 09:57:22;;;;;;;18.17;8.65;;;;;;;22.78;75.41;98644.91;4997116;28;20531;-87
2023/09/11 09:59:50;;;;;;;23.75;10.23;;;;;;;22.99;75.67;98646.47;5012571;28;20029;-88
2023/09/11 10:02:26;;;;;;;27.55;9.40;;;;;;;23.07;74.78;98645.59;4985030;28;20026;-87
2023/09/11 10:04:53;;;;;;;16.65;9.48;;;;;;;23.41;74.00;98647.22;5005332;28;20053;-87
2023/09/11 10:07:36;;;;;;;24.25;8.98;;;;;;;23.62;72.25;98631.59;5011395;28;20116;-88
2023/09/11 10:10:23;;;;;;;16.80;9.20;;;;;;;23.76;70.80;98644.88;5004603;28;20477;-88
2023/09/11 10:12:52;;;;;;;19.92;9.35;;;;;;;23.73;70.96;98630.00;5013756;28;20362;-87
2023/09/11 10:15:19;;;;;;;16.30;8.65;;;;;;;23.79;70.41;98608.75;5007319;28;20022;-88
2023/09/11 10:17:45;;;;;;;23.95;10.50;;;;;;;24.09;69.62;98629.22;4992867;28;20042;-88
2023/09/11 10:20:11;;;;;;;15.95;8.30;;;;;;;23.94;68.92;98582.75;4992525;28;20038;-88
2023/09/11 10:22:37;;;;;;;17.20;9.23;;;;;;;24.24;68.19;98612.19;4995730;28;20111;-88
2023/09/11 10:25:02;;;;;;;20.70;9.00;;;;;;;24.48;66.88;98628.50;4979084;28;20536;-88
2023/09/11 10:27:28;;;;;;;22.45;8.93;;;;;;;24.32;66.66;98616.72;4995023;28;20038;-88
2023/09/11 10:29:59;;;;;;;27.38;8.13;;;;;;;24.36;64.47;98611.34;5012864;28;20026;-88
2023/09/11 10:32:32;;;;;;;18.52;8.93;;;;;;;24.33;64.57;98622.97;4988189;28;20037;-88
2023/09/11 10:35:00;;;;;;;19.42;8.73;;;;;;;24.43;63.76;98625.22;5012169;28;20022;-88
2023/09/11 10:37:29;;;;;;;20.98;8.32;;;;;;;24.31;64.08;98609.66;4979442;28;20489;-88
2023/09/11 10:39:57;;;;;;;21.52;8.35;;;;;;;24.57;62.88;98620.19;4997216;28;20045;-88
2023/09/11 10:42:22;;;;;;;24.15;8.70;;;;;;;24.55;62.81;98609.59;4987722;28;20113;-88
2023/09/11 10:44:52;;;;;;;27.92;10.45;;;;;;;24.58;62.90;98621.75;5011207;28;20124;-88
2023/09/11 10:47:19;;;;;;;27.00;8.90;;;;;;;24.62;62.24;98609.00;5005946;28;20099;-88
2023/09/11 10:49:49;;;;;;;21.33;8.32;;;;;;;24.61;61.90;98593.78;5012315;28;20026;-88
2023/09/11 10:52:16;;;;;;;25.48;8.45;;;;;;;24.83;61.89;98614.31;5027992;28;20038;-88
2023/09/11 10:54:41;;;;;;;19.45;8.60;;;;;;;24.94;62.26;98618.94;4996006;28;20133;-88
2023/09/11 10:57:07;;;;;;;19.58;9.02;;;;;;;24.95;62.01;98601.41;5011842;28;20651;-88
2023/09/11 10:59:32;;;;;;;25.50;8.70;;;;;;;24.97;61.73;98598.31;5011865;28;20076;-88
2023/09/11 11:01:58;;;;;;;26.33;7.97;;;;;;;24.99;61.70;98596.81;5010540;28;20042;-88
2023/09/11 11:04:24;;;;;;;22.20;8.38;;;;;;;24.91;62.06;98591.53;5011020;28;20112;-88
2023/09/11 11:06:54;;;;;;;27.90;8.63;;;;;;;25.01;61.48;98597.28;5011654;28;20026;-88
2023/09/11 11:09:24;;;;;;;21.50;7.70;;;;;;;25.06;60.91;98586.09;5013319;28;20493;-88
2023/09/11 11:11:49;;;;;;;15.88;8.50;;;;;;;25.19;60.69;98600.47;5011082;28;20026;-88
2023/09/11 11:14:20;;;;;;;22.48;8.25;;;;;;;25.31;60.64;98597.69;5010931;28;20049;-88
2023/09/11 11:17:00;;;;;;;14.68;7.38;;;;;;;25.48;60.05;98586.44;5007849;28;20026;-88